createdAt,value
2019-05-23T00:00:44.684Z,11.73
2019-05-23T00:03:18.975Z,5.37
2019-05-23T00:05:52.594Z,7.17
2019-05-23T00:08:27.137Z,4.90
2019-05-23T00:11:15.770Z,4.60
2019-05-23T00:13:52.182Z,8.23
2019-05-23T00:16:24.517Z,5.63
2019-05-23T00:18:56.542Z,5.50
2019-05-23T00:21:28.295Z,4.43
2019-05-23T00:24:00.454Z,4.87
2019-05-23T00:26:32.770Z,5.00
2019-05-23T00:29:10.776Z,9.20
2019-05-23T00:31:46.535Z,4.63
2019-05-23T00:34:17.926Z,4.47
2019-05-23T00:36:49.728Z,4.40
2019-05-23T00:39:23.278Z,6.47
2019-05-23T00:41:56.563Z,6.27
2019-05-23T00:44:29.142Z,5.23
2019-05-23T00:47:01.771Z,4.53
2019-05-23T00:49:33.850Z,4.33
2019-05-23T00:52:06.151Z,4.07
2019-05-23T00:54:36.909Z,4.50
2019-05-23T00:57:09.779Z,6.83
2019-05-23T00:59:41.853Z,4.90
2019-05-23T01:02:13.011Z,5.30
2019-05-23T01:04:45.447Z,5.10
2019-05-23T01:07:19.651Z,3.90
2019-05-23T01:09:50.836Z,4.60
2019-05-23T01:12:22.831Z,4.20
2019-05-23T01:14:54.173Z,4.63
2019-05-23T01:17:27.524Z,4.70
2019-05-23T01:19:59.150Z,4.73
2019-05-23T01:22:30.412Z,5.73
2019-05-23T01:25:01.387Z,6.53
2019-05-23T01:27:32.593Z,3.80
2019-05-23T01:30:07.386Z,10.40
2019-05-23T01:32:47.401Z,10.90
2019-05-23T01:35:24.067Z,14.63
2019-05-23T01:37:55.340Z,8.00
2019-05-23T01:40:26.289Z,5.63
2019-05-23T01:42:57.353Z,4.90
2019-05-23T01:45:30.317Z,4.90
2019-05-23T01:48:01.914Z,4.70
2019-05-23T01:50:32.731Z,4.57
2019-05-23T01:53:06.531Z,6.67
2019-05-23T01:55:37.403Z,4.20
2019-05-23T01:58:09.586Z,7.60
2019-05-23T02:00:40.393Z,6.40
2019-05-23T02:03:11.421Z,4.17
2019-05-23T02:05:42.534Z,4.30
2019-05-23T02:08:15.595Z,4.27
2019-05-23T02:10:48.222Z,6.93
2019-05-23T02:13:19.591Z,4.60
2019-05-23T02:15:50.354Z,4.10
2019-05-23T02:18:22.119Z,3.97
2019-05-23T02:20:52.874Z,3.57
2019-05-23T02:23:24.133Z,3.60
2019-05-23T02:25:58.023Z,4.93
2019-05-23T02:28:30.330Z,3.67
2019-05-23T02:30:58.571Z,3.60
2019-05-23T02:33:29.507Z,3.67
2019-05-23T02:36:00.991Z,3.50
2019-05-23T02:39:05.839Z,3.37
2019-05-23T02:41:50.830Z,3.60
2019-05-23T02:44:24.760Z,3.90
2019-05-23T02:47:04.363Z,11.60
2019-05-23T02:49:37.388Z,5.67
2019-05-23T02:52:23.382Z,10.37
2019-05-23T02:54:57.338Z,15.83
2019-05-23T02:57:30.414Z,14.63
2019-05-23T03:00:11.375Z,13.63
2019-05-23T03:03:05.158Z,11.37
2019-05-23T03:05:37.530Z,13.13
2019-05-23T03:08:10.298Z,9.30
2019-05-23T03:11:15.965Z,11.80
2019-05-23T03:13:48.290Z,15.83
2019-05-23T03:16:23.488Z,9.13
2019-05-23T03:19:00.012Z,11.53
2019-05-23T03:21:31.446Z,9.33
2019-05-23T03:24:02.459Z,10.40
2019-05-23T03:27:00.422Z,8.97
2019-05-23T03:29:34.749Z,9.23
2019-05-23T03:32:25.321Z,20.37
2019-05-23T03:35:05.549Z,16.33
2019-05-23T03:37:36.478Z,9.03
2019-05-23T03:40:07.560Z,12.30
2019-05-23T03:42:38.752Z,8.00
2019-05-23T03:45:13.880Z,7.83
2019-05-23T03:47:46.026Z,7.10
2019-05-23T03:50:16.897Z,6.70
2019-05-23T03:52:47.621Z,10.23
2019-05-23T03:55:18.903Z,5.63
2019-05-23T03:57:50.466Z,5.50
2019-05-23T04:00:25.168Z,5.40
2019-05-23T04:02:57.574Z,6.50
2019-05-23T04:05:29.747Z,7.97
2019-05-23T04:08:01.934Z,10.40
2019-05-23T04:10:33.030Z,8.97
2019-05-23T04:13:04.324Z,9.90
2019-05-23T04:15:35.465Z,10.73
2019-05-23T04:18:08.412Z,5.77
2019-05-23T04:20:39.435Z,14.03
2019-05-23T04:23:10.502Z,8.60
2019-05-23T04:25:41.304Z,15.07
2019-05-23T04:28:13.220Z,24.87
2019-05-23T04:30:44.742Z,14.60
2019-05-23T04:33:15.579Z,13.07
2019-05-23T04:35:48.368Z,14.70
2019-05-23T04:38:19.169Z,22.43
2019-05-23T04:40:50.202Z,19.07
2019-05-23T04:43:21.473Z,15.77
2019-05-23T04:45:52.204Z,20.07
2019-05-23T04:48:24.512Z,17.23
2019-05-23T04:50:59.770Z,21.67
2019-05-23T04:53:28.406Z,11.60
2019-05-23T04:55:59.232Z,10.80
2019-05-23T04:58:30.896Z,29.37
2019-05-23T05:01:03.375Z,25.07
2019-05-23T05:03:34.648Z,6.60
2019-05-23T05:06:07.192Z,5.13
2019-05-23T05:08:38.301Z,7.60
2019-05-23T05:11:10.352Z,11.93
2019-05-23T05:13:41.501Z,18.90
2019-05-23T05:16:13.218Z,14.43
2019-05-23T05:18:44.239Z,24.57
2019-05-23T05:21:16.028Z,20.37
2019-05-23T05:23:46.799Z,28.83
2019-05-23T05:26:22.889Z,13.73
2019-05-23T05:28:53.932Z,9.53
2019-05-23T05:31:25.680Z,11.03
2019-05-23T05:33:56.699Z,5.57
2019-05-23T05:36:27.579Z,12.30
2019-05-23T05:38:58.303Z,21.73
2019-05-23T05:41:29.142Z,22.03
2019-05-23T05:44:00.811Z,14.03
2019-05-23T05:46:33.396Z,12.70
2019-05-23T05:49:05.695Z,4.93
2019-05-23T05:51:36.279Z,4.13
2019-05-23T05:54:09.806Z,11.53
2019-05-23T05:56:41.505Z,4.03
2019-05-23T05:59:13.191Z,4.23
2019-05-23T06:01:43.693Z,6.20
2019-05-23T06:04:14.658Z,4.10
2019-05-23T06:06:52.837Z,11.43
2019-05-23T06:09:27.824Z,4.20
2019-05-23T06:11:58.713Z,5.03
2019-05-23T06:14:29.477Z,4.70
2019-05-23T06:17:01.244Z,4.10
2019-05-23T06:19:32.764Z,3.87
2019-05-23T06:22:04.631Z,4.03
2019-05-23T06:24:46.702Z,4.60
2019-05-23T06:27:13.868Z,4.60
2019-05-23T06:29:47.947Z,3.97
2019-05-23T06:32:21.278Z,4.53
2019-05-23T06:34:55.511Z,4.90
2019-05-23T06:37:28.244Z,5.00
2019-05-23T06:39:59.298Z,5.57
2019-05-23T06:42:30.693Z,5.33
2019-05-23T06:45:02.785Z,7.57
2019-05-23T06:47:33.229Z,7.47
2019-05-23T06:50:05.674Z,7.90
2019-05-23T06:52:39.088Z,9.10
2019-05-23T06:55:10.451Z,4.57
2019-05-23T06:57:41.431Z,4.53
2019-05-23T07:00:15.276Z,14.77
2019-05-23T07:02:48.411Z,5.20
2019-05-23T07:05:22.073Z,8.30
2019-05-23T07:07:52.644Z,9.67
2019-05-23T07:10:25.638Z,9.63
2019-05-23T07:12:56.126Z,9.93
2019-05-23T07:15:29.060Z,16.17
2019-05-23T07:18:00.979Z,17.73
2019-05-23T07:20:32.071Z,11.17
2019-05-23T07:23:02.460Z,16.27
2019-05-23T07:25:32.906Z,15.93
2019-05-23T07:28:03.813Z,18.57
2019-05-23T07:30:34.348Z,14.87
2019-05-23T07:33:04.912Z,20.43
2019-05-23T07:35:35.319Z,18.00
2019-05-23T07:38:06.066Z,18.00
2019-05-23T07:40:36.533Z,16.57
2019-05-23T07:43:08.674Z,21.57
2019-05-23T07:45:53.503Z,13.30
2019-05-23T07:48:24.306Z,13.50
2019-05-23T07:50:54.718Z,13.10
2019-05-23T07:53:46.934Z,12.70
2019-05-23T07:56:19.642Z,13.10
2019-05-23T07:58:50.113Z,17.07
2019-05-23T08:01:23.235Z,20.13
2019-05-23T08:03:53.925Z,10.17
2019-05-23T08:06:24.547Z,12.70
2019-05-23T08:08:55.215Z,13.50
2019-05-23T08:11:27.427Z,17.30
2019-05-23T08:13:59.327Z,7.33
2019-05-23T08:16:29.742Z,14.33
2019-05-23T08:19:00.411Z,9.77
2019-05-23T08:21:30.913Z,6.30
2019-05-23T08:24:02.147Z,10.30
2019-05-23T08:26:34.160Z,9.80
2019-05-23T08:29:24.654Z,8.10
2019-05-23T08:31:38.036Z,11.20
2019-05-23T08:34:09.081Z,8.67
2019-05-23T08:36:40.103Z,5.50
2019-05-23T08:39:14.436Z,8.20
2019-05-23T08:41:45.597Z,8.20
2019-05-23T08:44:16.230Z,5.60
2019-05-23T08:46:47.446Z,5.33
2019-05-23T08:49:18.168Z,4.80
2019-05-23T08:51:48.973Z,4.60
2019-05-23T08:54:19.353Z,5.17
2019-05-23T08:56:50.418Z,4.87
2019-05-23T08:59:22.045Z,4.97
2019-05-23T09:01:52.920Z,4.50
2019-05-23T09:04:24.210Z,4.70
2019-05-23T09:06:57.456Z,6.30
2019-05-23T09:09:30.542Z,11.20
2019-05-23T09:12:01.739Z,8.40
2019-05-23T09:14:32.457Z,5.10
2019-05-23T09:17:04.461Z,9.37
2019-05-23T09:19:37.206Z,5.07
2019-05-23T09:22:08.184Z,5.13
2019-05-23T09:24:45.374Z,4.70
2019-05-23T09:27:15.976Z,7.53
2019-05-23T09:29:46.920Z,8.50
2019-05-23T09:32:19.397Z,5.07
2019-05-23T09:34:50.133Z,4.40
2019-05-23T09:37:21.450Z,5.17
2019-05-23T09:39:52.117Z,4.20
2019-05-23T09:42:22.942Z,4.40
2019-05-23T09:44:53.497Z,8.43
2019-05-23T09:47:23.988Z,4.40
2019-05-23T09:49:54.758Z,4.50
2019-05-23T09:52:27.151Z,6.73
2019-05-23T09:54:58.391Z,4.93
2019-05-23T09:57:29.431Z,3.80
2019-05-23T10:00:01.616Z,4.20
2019-05-23T10:02:32.823Z,6.53
2019-05-23T10:05:03.746Z,5.13
2019-05-23T10:07:34.736Z,4.80
2019-05-23T10:10:06.319Z,4.63
2019-05-23T10:12:37.509Z,4.70
2019-05-23T10:15:10.650Z,6.40
2019-05-23T10:17:41.805Z,5.60
2019-05-23T10:20:14.474Z,4.73
2019-05-23T10:22:45.056Z,9.60
2019-05-23T10:25:15.867Z,4.87
2019-05-23T10:27:46.706Z,5.20
2019-05-23T10:30:19.573Z,4.70
2019-05-23T10:32:50.832Z,4.57
2019-05-23T10:35:23.501Z,4.53
2019-05-23T10:37:54.564Z,4.50
2019-05-23T10:40:25.651Z,4.93
2019-05-23T10:42:56.550Z,5.27
2019-05-23T10:45:27.791Z,4.50
2019-05-23T10:47:59.163Z,5.37
2019-05-23T10:50:43.627Z,4.60
2019-05-23T10:53:02.706Z,6.20
2019-05-23T10:55:34.191Z,5.17
2019-05-23T10:58:06.932Z,4.57
2019-05-23T11:00:39.860Z,7.93
2019-05-23T11:03:12.373Z,5.00
2019-05-23T11:05:44.017Z,5.07
2019-05-23T11:08:15.401Z,7.60
2019-05-23T11:10:47.646Z,5.27
2019-05-23T11:13:18.590Z,4.70
2019-05-23T11:15:49.406Z,5.50
2019-05-23T11:18:21.861Z,5.53
2019-05-23T11:20:52.731Z,6.50
2019-05-23T11:23:26.748Z,5.70
2019-05-23T11:26:01.005Z,5.67
2019-05-23T11:28:32.026Z,5.77
2019-05-23T11:31:04.301Z,5.17
2019-05-23T11:33:35.975Z,5.87
2019-05-23T11:36:07.496Z,5.43
2019-05-23T11:38:41.649Z,5.60
2019-05-23T11:41:13.140Z,5.30
2019-05-23T11:43:44.998Z,5.17
2019-05-23T11:46:27.940Z,5.57
2019-05-23T11:48:58.657Z,5.67
2019-05-23T11:51:29.443Z,5.90
2019-05-23T11:54:09.684Z,5.20
2019-05-23T11:56:35.507Z,5.77
2019-05-23T11:59:06.692Z,5.70
2019-05-23T12:01:55.608Z,6.20
2019-05-23T12:04:30.218Z,6.20
2019-05-23T12:07:26.115Z,5.70
2019-05-23T12:09:57.532Z,6.10
2019-05-23T12:12:28.543Z,7.10
2019-05-23T12:14:59.134Z,6.97
2019-05-23T12:17:32.578Z,6.13
2019-05-23T12:20:03.044Z,8.17
2019-05-23T12:22:33.889Z,6.40
2019-05-23T12:25:21.430Z,6.47
2019-05-23T12:27:38.143Z,6.27
2019-05-23T12:30:11.599Z,6.70
2019-05-23T12:32:42.518Z,7.00
2019-05-23T12:35:13.879Z,6.40
2019-05-23T12:37:45.933Z,9.20
2019-05-23T12:40:17.000Z,9.53
2019-05-23T12:42:48.021Z,8.37
2019-05-23T12:45:19.340Z,7.70
2019-05-23T12:48:03.852Z,11.93
2019-05-23T12:50:44.344Z,6.77
2019-05-23T12:53:16.357Z,6.73
2019-05-23T12:55:47.039Z,6.73
2019-05-23T12:58:19.095Z,6.67
2019-05-23T13:00:55.958Z,26.47
2019-05-23T13:03:27.004Z,13.00
2019-05-23T13:05:57.438Z,8.70
2019-05-23T13:08:29.714Z,6.77
2019-05-23T13:11:00.418Z,9.07
2019-05-23T13:13:31.240Z,14.03
2019-05-23T13:16:02.004Z,10.17
2019-05-23T13:18:32.577Z,5.23
2019-05-23T13:21:02.887Z,7.03
2019-05-23T13:23:34.889Z,6.67
2019-05-23T13:26:05.927Z,6.20
2019-05-23T13:28:36.464Z,5.50
2019-05-23T13:31:06.895Z,5.97
2019-05-23T13:33:37.600Z,4.83
2019-05-23T13:36:08.003Z,6.43
2019-05-23T13:38:39.027Z,5.93
2019-05-23T13:41:12.670Z,5.97
2019-05-23T13:43:43.523Z,5.50
2019-05-23T13:46:14.482Z,5.13
2019-05-23T13:48:45.028Z,4.70
2019-05-23T13:51:15.500Z,7.03
2019-05-23T13:53:45.982Z,7.63
2019-05-23T13:56:17.420Z,5.23
2019-05-23T13:58:48.289Z,6.70
2019-05-23T14:01:21.532Z,7.27
2019-05-23T14:03:53.903Z,5.20
2019-05-23T14:06:24.941Z,5.30
2019-05-23T14:08:55.757Z,5.50
2019-05-23T14:11:26.567Z,7.87
2019-05-23T14:14:00.047Z,6.80
2019-05-23T14:16:31.730Z,5.00
2019-05-23T14:19:04.836Z,10.63
2019-05-23T14:21:36.633Z,9.17
2019-05-23T14:24:07.395Z,7.03
2019-05-23T14:26:45.171Z,7.63
2019-05-23T14:29:15.748Z,7.10
2019-05-23T14:31:55.079Z,5.50
2019-05-23T14:34:26.264Z,5.20
2019-05-23T14:37:13.117Z,5.97
2019-05-23T14:39:45.951Z,5.90
2019-05-23T14:42:38.376Z,8.20
2019-05-23T14:45:19.548Z,6.23
2019-05-23T14:48:27.583Z,5.57
2019-05-23T14:51:08.731Z,4.63
2019-05-23T14:53:41.288Z,7.67
2019-05-23T14:56:12.351Z,5.47
2019-05-23T14:58:43.100Z,6.47
2019-05-23T15:01:13.855Z,4.70
2019-05-23T15:03:44.566Z,10.00
2019-05-23T15:06:15.322Z,5.10
2019-05-23T15:08:51.120Z,5.00
2019-05-23T15:11:19.376Z,6.60
2019-05-23T15:13:50.274Z,5.47
2019-05-23T15:16:22.225Z,8.63
2019-05-23T15:18:53.068Z,5.60
2019-05-23T15:21:24.314Z,6.50
2019-05-23T15:23:55.719Z,5.83
2019-05-23T15:26:26.335Z,8.73
2019-05-23T15:28:56.878Z,22.10
2019-05-23T15:31:27.360Z,12.23
2019-05-23T15:33:57.985Z,9.57
2019-05-23T15:36:28.942Z,12.17
2019-05-23T15:39:09.565Z,10.43
2019-05-23T15:41:32.599Z,20.30
2019-05-23T15:44:19.437Z,18.73
2019-05-23T15:46:36.812Z,15.00
2019-05-23T15:49:08.241Z,13.73
2019-05-23T15:51:44.984Z,6.30
2019-05-23T15:54:32.685Z,5.53
2019-05-23T15:57:25.416Z,16.40
2019-05-23T16:00:05.439Z,14.73
2019-05-23T16:02:42.136Z,8.00
2019-05-23T16:05:14.230Z,6.00
2019-05-23T16:07:45.709Z,8.23
2019-05-23T16:10:18.575Z,13.40
2019-05-23T16:12:50.535Z,6.77
2019-05-23T16:15:20.888Z,7.97
2019-05-23T16:17:52.602Z,21.50
2019-05-23T16:20:23.729Z,8.70
2019-05-23T16:23:14.783Z,4.83
2019-05-23T16:25:45.453Z,5.83
2019-05-23T16:28:16.159Z,6.10
2019-05-23T16:30:47.325Z,4.77
2019-05-23T16:33:17.921Z,8.13
2019-05-23T16:35:48.424Z,4.70
2019-05-23T16:38:18.830Z,4.43
2019-05-23T16:40:49.572Z,4.67
2019-05-23T16:43:20.355Z,4.30
2019-05-23T16:45:51.365Z,8.30
2019-05-23T16:48:21.968Z,5.67
2019-05-23T16:50:52.679Z,5.20
2019-05-23T16:53:23.713Z,7.13
2019-05-23T16:56:11.439Z,6.00
2019-05-23T16:59:04.344Z,5.00
2019-05-23T17:01:57.859Z,7.03
2019-05-23T17:05:09.238Z,6.20
2019-05-23T17:07:50.245Z,5.70
2019-05-23T17:10:32.837Z,4.50
2019-05-23T17:13:29.264Z,4.70
2019-05-23T17:16:10.397Z,6.40
2019-05-23T17:19:09.366Z,8.07
2019-05-23T17:21:49.477Z,8.60
2019-05-23T17:24:45.607Z,5.37
2019-05-23T17:27:35.489Z,6.30
2019-05-23T17:30:17.940Z,5.53
2019-05-23T17:32:48.549Z,7.90
2019-05-23T17:35:19.121Z,6.50
2019-05-23T17:37:50.128Z,11.57
2019-05-23T17:40:24.993Z,10.20
2019-05-23T17:42:53.341Z,6.73
2019-05-23T17:45:23.791Z,10.57
2019-05-23T17:47:54.444Z,11.67
2019-05-23T17:50:25.753Z,9.80
2019-05-23T17:52:56.874Z,15.30
2019-05-23T17:55:28.480Z,19.63
2019-05-23T17:57:59.221Z,6.43
2019-05-23T18:00:36.442Z,10.20
2019-05-23T18:03:08.034Z,18.87
2019-05-23T18:05:38.734Z,15.53
2019-05-23T18:08:10.317Z,5.67
2019-05-23T18:10:45.137Z,12.50
2019-05-23T18:13:15.455Z,8.30
2019-05-23T18:15:46.921Z,9.93
2019-05-23T18:18:21.031Z,13.70
2019-05-23T18:20:54.088Z,8.93
2019-05-23T18:23:24.943Z,21.07
2019-05-23T18:25:55.574Z,10.93
2019-05-23T18:28:26.442Z,11.30
2019-05-23T18:31:05.535Z,17.73
2019-05-23T18:33:33.779Z,24.80
2019-05-23T18:36:05.071Z,7.60
2019-05-23T18:38:36.218Z,7.90
2019-05-23T18:41:09.193Z,6.87
2019-05-23T18:43:40.347Z,8.00
2019-05-23T18:46:16.366Z,11.20
2019-05-23T18:48:47.496Z,10.33
2019-05-23T18:51:18.595Z,7.23
2019-05-23T18:53:49.315Z,6.27
2019-05-23T18:56:20.625Z,8.67
2019-05-23T18:58:51.225Z,6.60
2019-05-23T19:01:24.454Z,12.73
2019-05-23T19:03:55.473Z,6.10
2019-05-23T19:06:26.038Z,12.13
2019-05-23T19:08:56.947Z,7.57
2019-05-23T19:11:27.643Z,9.00
2019-05-23T19:13:58.507Z,5.93
2019-05-23T19:16:29.447Z,9.33
2019-05-23T19:19:00.383Z,7.67
2019-05-23T19:21:31.658Z,6.27
2019-05-23T19:24:03.161Z,6.80
2019-05-23T19:26:34.653Z,6.47
2019-05-23T19:29:05.302Z,8.53
2019-05-23T19:31:36.530Z,14.40
2019-05-23T19:34:07.669Z,13.73
2019-05-23T19:36:38.425Z,11.63
2019-05-23T19:39:09.145Z,6.87
2019-05-23T19:41:40.349Z,7.20
2019-05-23T19:44:10.719Z,8.13
2019-05-23T19:46:41.166Z,9.30
2019-05-23T19:49:11.940Z,8.10
2019-05-23T19:51:43.837Z,9.07
2019-05-23T19:54:14.328Z,6.60
2019-05-23T19:56:44.594Z,10.83
2019-05-23T19:59:14.848Z,6.30
2019-05-23T20:02:07.008Z,6.40
2019-05-23T20:04:40.031Z,10.20
2019-05-23T20:07:14.642Z,10.83
2019-05-23T20:09:42.902Z,7.80
2019-05-23T20:12:15.241Z,5.17
2019-05-23T20:14:45.847Z,5.47
2019-05-23T20:17:16.829Z,5.73
2019-05-23T20:19:50.248Z,5.07
2019-05-23T20:22:19.993Z,5.70
2019-05-23T20:24:50.626Z,8.27
2019-05-23T20:27:21.561Z,5.77
2019-05-23T20:29:52.213Z,5.63
2019-05-23T20:32:24.542Z,5.80
2019-05-23T20:34:55.337Z,9.13
2019-05-23T20:37:28.095Z,6.97
2019-05-23T20:39:58.608Z,6.23
2019-05-23T20:42:31.272Z,12.90
2019-05-23T20:45:02.287Z,9.30
2019-05-23T20:47:33.656Z,6.47
2019-05-23T20:50:04.328Z,7.27
2019-05-23T20:52:34.823Z,8.03
2019-05-23T20:55:05.566Z,11.23
2019-05-23T20:57:35.973Z,8.30
2019-05-23T21:00:08.794Z,9.63
2019-05-23T21:02:39.581Z,8.93
2019-05-23T21:05:11.744Z,11.10
2019-05-23T21:07:42.370Z,9.73
2019-05-23T21:10:16.154Z,6.87
2019-05-23T21:12:47.037Z,6.27
2019-05-23T21:15:17.559Z,6.53
2019-05-23T21:17:48.063Z,7.13
2019-05-23T21:20:18.524Z,5.43
2019-05-23T21:22:49.224Z,4.70
2019-05-23T21:25:19.799Z,6.50
2019-05-23T21:27:50.276Z,4.30
2019-05-23T21:30:20.981Z,4.60
2019-05-23T21:32:51.510Z,5.30
2019-05-23T21:35:22.419Z,5.30
2019-05-23T21:37:56.128Z,8.07
2019-05-23T21:40:46.080Z,4.47
2019-05-23T21:43:17.089Z,5.00
2019-05-23T21:45:47.615Z,4.50
2019-05-23T21:51:01.276Z,4.90
2019-05-23T21:53:32.468Z,5.23
2019-05-23T21:56:02.889Z,6.50
2019-05-23T21:58:33.350Z,5.43
2019-05-23T22:01:26.544Z,4.53
2019-05-23T22:04:14.808Z,4.40
2019-05-23T22:07:04.797Z,5.03
2019-05-23T22:09:35.940Z,4.90
2019-05-23T22:12:09.011Z,5.07
2019-05-23T22:14:40.067Z,6.57
2019-05-23T22:17:10.721Z,5.17
2019-05-23T22:19:41.139Z,4.80
2019-05-23T22:22:12.191Z,5.20
2019-05-23T22:24:42.810Z,9.70
2019-05-23T22:27:14.605Z,5.93
2019-05-23T22:29:45.195Z,6.27
2019-05-23T22:32:18.191Z,6.07
2019-05-23T22:35:02.356Z,6.23
2019-05-23T22:37:33.110Z,6.93
2019-05-23T22:40:04.214Z,6.67
2019-05-23T22:42:34.884Z,6.33
2019-05-23T22:45:09.928Z,8.10
2019-05-23T22:47:40.651Z,6.67
2019-05-23T22:50:11.424Z,11.73
2019-05-23T22:52:41.734Z,8.80
2019-05-23T22:55:12.359Z,9.10
2019-05-23T22:57:42.949Z,9.23
2019-05-23T23:00:15.626Z,6.37
2019-05-23T23:02:46.377Z,6.23
2019-05-23T23:05:17.001Z,6.73
2019-05-23T23:07:47.470Z,5.90
2019-05-23T23:10:18.215Z,8.30
2019-05-23T23:12:48.772Z,6.27
2019-05-23T23:15:19.732Z,6.47
2019-05-23T23:17:50.309Z,6.30
2019-05-23T23:20:20.891Z,5.70
2019-05-23T23:22:51.363Z,6.53
2019-05-23T23:25:22.427Z,5.67
2019-05-23T23:27:53.150Z,8.40
2019-05-23T23:30:27.503Z,6.90
2019-05-23T23:32:58.092Z,5.53
2019-05-23T23:35:28.517Z,5.60
2019-05-23T23:37:59.034Z,5.90
2019-05-23T23:40:29.540Z,5.70
2019-05-23T23:42:59.993Z,5.20
2019-05-23T23:45:48.333Z,5.37
2019-05-23T23:48:36.174Z,5.20
2019-05-23T23:51:24.634Z,5.37
2019-05-23T23:54:12.454Z,5.50
2019-05-23T23:57:00.610Z,6.00
2019-05-23T23:59:30.363Z,5.43
